logo
Search for airport 
image banner adimage banner adimage banner ad
image banner ad

CA961 - Langille Lake (Cll2)

Located in , Canada

ICAO - , IATA -

Data provided by Airmate  

General information

Coordinates: N44°27'0" W64°26'52"
Elevation is 215 feet MSL.
 
View others Airports in Nova Scotia

Operational data

Special qualification required
Current time UTC:
Current local time:
Weather at : CYZX - Greenwood ( 70 km )
TAF: TAF CYZX 222340Z 2300/2324 26010KT P6SM SKC BECMG 2300/2302 29005KT BECMG 2302/2304 00000KT FM231200 13007KT P6SM SKC BECMG 2313/2315 17010KT FM231800 16012KT P6SM SCT250 FM232000 15010KT P6SM BKN250 RMK NXT FCST BY 230600Z
View NOTAMs / SUP AIP / TFR affecting this airport [VIEW]
Communications frequencies: [VIEW]

Runways:

Airport contact information

Address: Canada

Satellite view of CA961